Time;durP1;ratioP1;P1;durP2;ratioP2;P2;SDS_P1;SDS_P2;PMS_P1;PMS_P2;Temp;Humidity;BMP_temperature;BMP_pressure;BME280_temperature;BME280_humidity;BME280_pressure;Samples;Min_cycle;Max_cycle;Signal;HPM_P1;HPM_P2
2022/06/02 00:02:12;;;;;;;4.65;2.33;;;15.80;88.80;;;;;;4990632;28;20057;-76
2022/06/02 00:05:01;;;;;;;3.95;2.33;;;15.70;89.10;;;;;;4991354;28;20387;-76
2022/06/02 00:07:41;;;;;;;4.13;2.10;;;15.70;89.60;;;;;;5013156;28;20525;-75
2022/06/02 00:10:35;;;;;;;4.00;2.53;;;15.70;89.10;;;;;;5006348;28;20034;-75
2022/06/02 00:13:33;;;;;;;4.47;2.40;;;15.70;89.20;;;;;;4995378;28;20030;-76
2022/06/02 00:16:06;;;;;;;3.88;2.47;;;15.70;89.30;;;;;;4951782;28;20064;-75
2022/06/02 00:18:51;;;;;;;4.13;2.50;;;15.70;89.30;;;;;;4988216;28;20037;-75
2022/06/02 00:21:38;;;;;;;3.65;2.20;;;15.70;89.40;;;;;;5004994;28;20613;-75
2022/06/02 00:24:13;;;;;;;3.53;2.40;;;15.60;89.40;;;;;;4987797;28;20038;-74
2022/06/02 00:26:44;;;;;;;3.35;2.20;;;15.60;89.40;;;;;;4990956;28;20112;-76
2022/06/02 00:29:20;;;;;;;4.10;2.45;;;15.60;89.40;;;;;;5002677;28;20035;-76
2022/06/02 00:31:53;;;;;;;4.18;2.40;;;15.60;89.40;;;;;;5004105;28;20041;-76
2022/06/02 00:34:46;;;;;;;3.60;2.40;;;15.60;89.40;;;;;;5004022;28;20034;-74
2022/06/02 00:37:23;;;;;;;4.30;2.35;;;15.60;89.50;;;;;;5006782;28;20080;-75
2022/06/02 00:39:50;;;;;;;3.35;2.30;;;15.60;89.50;;;;;;5005435;28;20486;-75
2022/06/02 00:42:53;;;;;;;5.22;2.67;;;15.60;89.50;;;;;;5002580;28;20084;-76
2022/06/02 00:45:20;;;;;;;5.13;2.63;;;15.60;89.50;;;;;;4988676;28;20027;-75
2022/06/02 00:48:21;;;;;;;4.60;2.63;;;15.60;89.50;;;;;;5002361;28;20030;-76
2022/06/02 00:51:05;;;;;;;3.30;2.13;;;15.60;89.50;;;;;;4983229;28;20590;-74
2022/06/02 00:59:49;;;;;;;4.35;2.45;;;15.70;89.40;;;;;;4990072;28;20045;-75
2022/06/02 01:02:16;;;;;;;3.75;2.47;;;15.70;89.20;;;;;;5014042;28;20412;-74
2022/06/02 01:04:43;;;;;;;3.70;2.40;;;15.70;89.10;;;;;;4997691;28;20320;-75
2022/06/02 01:07:38;;;;;;;3.95;2.50;;;15.70;88.90;;;;;;4990526;28;20030;-75
2022/06/02 01:10:26;;;;;;;3.15;2.30;;;15.70;88.80;;;;;;4997717;28;20814;-76
2022/06/02 01:12:59;;;;;;;4.80;2.60;;;15.80;88.80;;;;;;4990624;28;20030;-76
2022/06/02 01:15:45;;;;;;;3.75;2.38;;;15.70;89.00;;;;;;5004840;28;20034;-75
2022/06/02 01:18:19;;;;;;;4.63;2.60;;;15.70;89.20;;;;;;4994064;28;20036;-75
2022/06/02 01:21:09;;;;;;;3.05;2.10;;;15.70;89.20;;;;;;4986974;28;20552;-76
2022/06/02 01:24:06;;;;;;;3.65;2.28;;;15.70;89.30;;;;;;4986845;28;20638;-76
2022/06/02 01:26:58;;;;;;;3.00;2.10;;;15.60;89.20;;;;;;4998559;28;20649;-76
2022/06/02 01:29:45;;;;;;;4.32;2.50;;;15.60;89.30;;;;;;4986762;28;20096;-75
2022/06/02 01:32:16;;;;;;;4.05;2.30;;;15.60;89.40;;;;;;4990610;28;20031;-75
2022/06/02 01:35:07;;;;;;;4.03;2.55;;;15.70;90.00;;;;;;4987796;28;20158;-76
2022/06/02 01:38:18;;;;;;;3.90;2.15;;;15.60;89.50;;;;;;4987394;28;20525;-75
2022/06/02 01:41:00;;;;;;;3.47;2.28;;;15.60;89.50;;;;;;5004227;28;20580;-75
2022/06/02 01:43:58;;;;;;;3.85;2.42;;;15.60;89.50;;;;;;5005178;28;20776;-76
2022/06/02 01:46:45;;;;;;;3.60;2.20;;;15.60;89.60;;;;;;4962670;28;20065;-75
2022/06/02 01:49:28;;;;;;;4.20;2.45;;;15.60;89.50;;;;;;4989507;28;20032;-75
2022/06/02 01:52:15;;;;;;;3.55;2.20;;;15.60;89.60;;;;;;4987817;28;20029;-75
2022/06/02 01:55:09;;;;;;;4.53;2.58;;;15.60;89.60;;;;;;5004969;28;20072;-74
2022/06/02 01:58:05;;;;;;;3.33;2.20;;;15.60;89.60;;;;;;5001442;28;20041;-75
2022/06/02 02:00:34;;;;;;;3.95;2.28;;;15.60;89.60;;;;;;5001704;28;20030;-74
2022/06/02 02:03:11;;;;;;;3.92;2.40;;;15.60;89.60;;;;;;4987445;28;20077;-76
2022/06/02 02:05:39;;;;;;;3.95;2.53;;;15.60;89.60;;;;;;4985362;28;20395;-76
2022/06/02 02:08:47;;;;;;;4.32;2.58;;;15.60;89.50;;;;;;4986852;28;20026;-76
2022/06/02 02:11:31;;;;;;;3.95;2.30;;;15.60;89.40;;;;;;4998910;28;20030;-76
2022/06/02 02:14:15;;;;;;;3.95;2.40;;;15.70;89.30;;;;;;4991519;28;20593;-75
2022/06/02 02:17:03;;;;;;;3.80;2.38;;;15.60;89.00;;;;;;5001001;28;20384;-75
2022/06/02 02:19:47;;;;;;;4.15;2.35;;;15.70;88.90;;;;;;5002218;28;20061;-76
2022/06/02 02:22:38;;;;;;;4.47;2.65;;;15.70;88.80;;;;;;4989612;28;20034;-75
2022/06/02 02:25:13;;;;;;;4.32;2.45;;;15.70;88.90;;;;;;5001255;28;20030;-76
2022/06/02 02:28:07;;;;;;;3.58;2.53;;;15.70;89.10;;;;;;4994341;28;20120;-76
2022/06/02 02:30:44;;;;;;;4.32;2.60;;;15.70;89.00;;;;;;4994356;28;20030;-75
2022/06/02 02:33:19;;;;;;;4.13;2.33;;;15.60;89.10;;;;;;4989769;28;20024;-76
2022/06/02 02:36:02;;;;;;;4.25;2.50;;;15.60;89.20;;;;;;5004729;28;20487;-75
2022/06/02 02:38:46;;;;;;;3.88;2.42;;;15.60;89.20;;;;;;5000041;28;20080;-76
2022/06/02 02:41:20;;;;;;;3.30;2.33;;;15.60;89.30;;;;;;5005453;28;20060;-75
2022/06/02 02:44:04;;;;;;;3.50;2.30;;;15.60;89.30;;;;;;5003771;28;20034;-75
2022/06/02 02:46:36;;;;;;;3.72;2.38;;;15.60;89.40;;;;;;4989735;28;20108;-76
2022/06/02 02:49:21;;;;;;;4.70;2.50;;;15.60;89.40;;;;;;4995301;28;20026;-75
2022/06/02 02:52:18;;;;;;;4.07;2.40;;;15.60;89.50;;;;;;5005254;28;20037;-75
2022/06/02 02:54:59;;;;;;;3.83;2.47;;;15.60;89.50;;;;;;4974431;28;20038;-74
2022/06/02 02:57:52;;;;;;;4.57;2.30;;;15.60;89.50;;;;;;4993054;28;20097;-74
2022/06/02 03:00:23;;;;;;;4.00;2.58;;;15.60;89.60;;;;;;4989981;28;20037;-75
2022/06/02 03:02:54;;;;;;;3.38;2.33;;;15.60;89.60;;;;;;5000282;28;20403;-75
2022/06/02 03:05:31;;;;;;;4.60;2.90;;;15.60;89.50;;;;;;5007099;28;20029;-75
2022/06/02 03:08:06;;;;;;;3.67;2.20;;;15.50;89.50;;;;;;4990871;28;20034;-75
2022/06/02 03:10:36;;;;;;;3.70;2.28;;;15.60;89.60;;;;;;5002522;28;20042;-75
2022/06/02 03:13:33;;;;;;;4.03;2.25;;;15.60;89.60;;;;;;5008358;28;20088;-75
2022/06/02 03:16:11;;;;;;;4.03;2.45;;;15.60;89.60;;;;;;5005374;28;20037;-75
2022/06/02 03:19:07;;;;;;;4.28;2.60;;;15.60;89.60;;;;;;5007457;28;20136;-76
2022/06/02 03:22:02;;;;;;;4.22;2.47;;;15.60;89.50;;;;;;4988019;28;20500;-75
2022/06/02 03:24:41;;;;;;;3.45;2.13;;;15.60;89.40;;;;;;4989323;28;20537;-76
2022/06/02 03:27:53;;;;;;;4.72;2.70;;;15.60;89.10;;;;;;4989146;28;20034;-75
2022/06/02 03:30:25;;;;;;;4.10;2.33;;;15.70;89.50;;;;;;4975713;28;20503;-75
2022/06/02 03:33:05;;;;;;;4.07;2.60;;;15.70;88.80;;;;;;4990475;28;20034;-76
2022/06/02 03:35:52;;;;;;;4.32;2.60;;;15.70;88.80;;;;;;4990194;28;20053;-76
2022/06/02 03:38:29;;;;;;;4.80;2.70;;;15.60;88.90;;;;;;4988041;28;20574;-76
2022/06/02 03:41:06;;;;;;;3.30;2.10;;;15.60;89.10;;;;;;4989111;28;20498;-76
2022/06/02 03:44:04;;;;;;;4.65;2.63;;;15.60;89.10;;;;;;5003250;28;20050;-76
2022/06/02 03:46:43;;;;;;;3.88;2.33;;;15.60;89.20;;;;;;5003869;28;20109;-75
2022/06/02 03:49:48;;;;;;;3.70;2.47;;;15.60;89.30;;;;;;5003859;28;20436;-75
2022/06/02 03:52:25;;;;;;;4.10;2.60;;;15.50;89.30;;;;;;5006674;28;20070;-75
2022/06/02 03:55:09;;;;;;;3.92;2.50;;;15.60;89.40;;;;;;4999377;28;20033;-75
2022/06/02 03:57:59;;;;;;;4.22;2.53;;;15.60;89.50;;;;;;5003852;28;20025;-76
2022/06/02 04:00:45;;;;;;;4.50;2.85;;;15.50;89.40;;;;;;5007210;28;20026;-74
2022/06/02 04:03:22;;;;;;;3.78;2.35;;;15.60;90.00;;;;;;5007004;28;20030;-75
2022/06/02 04:06:23;;;;;;;4.95;3.10;;;15.60;89.50;;;;;;5007860;28;20040;-75
2022/06/02 04:09:01;;;;;;;4.22;2.70;;;15.50;89.40;;;;;;5001466;28;20030;-75
2022/06/02 04:15:02;;;;;;;4.30;2.78;;;15.60;89.50;;;;;;5007326;28;20410;-75
2022/06/02 04:17:38;;;;;;;4.30;2.80;;;15.60;89.50;;;;;;5021188;28;20041;-75
2022/06/02 04:20:35;;;;;;;4.57;2.83;;;15.60;89.90;;;;;;5006355;28;20048;-76
2022/06/02 04:23:31;;;;;;;4.32;2.88;;;15.50;89.90;;;;;;5006872;28;20029;-76
2022/06/02 04:26:21;;;;;;;4.68;2.85;;;15.50;89.30;;;;;;4993116;28;20026;-75
2022/06/02 04:29:18;;;;;;;4.32;2.50;;;15.50;89.50;;;;;;5005514;28;20219;-75
2022/06/02 04:32:11;;;;;;;4.43;2.70;;;15.60;89.50;;;;;;5005750;28;20045;-76
2022/06/02 04:35:02;;;;;;;3.72;2.40;;;15.60;89.30;;;;;;4998351;28;20558;-77
2022/06/02 04:37:40;;;;;;;4.43;2.47;;;15.60;89.00;;;;;;4980125;28;20046;-76
2022/06/02 04:40:27;;;;;;;4.43;2.80;;;15.70;88.90;;;;;;5007067;28;20042;-76
2022/06/02 04:43:06;;;;;;;4.68;2.78;;;15.70;88.70;;;;;;5002965;28;20053;-77
2022/06/02 04:45:41;;;;;;;4.53;2.72;;;15.70;88.60;;;;;;5004479;28;20037;-76
2022/06/02 04:48:41;;;;;;;4.40;2.90;;;15.70;88.50;;;;;;5003745;28;20033;-74
2022/06/02 04:51:23;;;;;;;4.43;2.47;;;15.70;89.00;;;;;;4988767;28;20027;-76
2022/06/02 04:54:04;;;;;;;3.90;2.55;;;15.60;88.90;;;;;;4988813;28;20042;-76
2022/06/02 04:56:46;;;;;;;4.85;2.90;;;15.70;89.20;;;;;;5019350;28;20026;-76
2022/06/02 04:59:21;;;;;;;4.20;2.70;;;15.60;89.10;;;;;;4992642;28;20026;-75
2022/06/02 05:02:12;;;;;;;4.60;2.85;;;15.60;89.10;;;;;;4989800;28;20597;-76
2022/06/02 05:05:13;;;;;;;5.22;3.15;;;15.60;89.10;;;;;;4991997;28;20525;-76
2022/06/02 05:08:06;;;;;;;4.95;3.10;;;15.60;89.10;;;;;;4992595;28;20105;-76
2022/06/02 05:10:43;;;;;;;5.22;3.20;;;15.60;89.10;;;;;;4999533;28;20034;-75
2022/06/02 05:13:30;;;;;;;4.55;2.80;;;15.60;89.20;;;;;;5006631;28;20414;-76
2022/06/02 05:16:20;;;;;;;4.82;3.13;;;15.60;89.20;;;;;;4994842;28;20026;-75
2022/06/02 05:19:08;;;;;;;5.85;3.35;;;15.60;89.10;;;;;;4996094;28;20062;-76
2022/06/02 05:21:57;;;;;;;4.43;2.92;;;15.60;89.10;;;;;;5004334;28;20029;-76
2022/06/02 05:24:44;;;;;;;5.05;3.10;;;15.60;89.20;;;;;;5003748;28;20506;-76
2022/06/02 05:27:36;;;;;;;5.07;3.17;;;15.60;89.20;;;;;;4988512;28;20034;-75
2022/06/02 05:30:23;;;;;;;5.05;3.10;;;15.60;89.20;;;;;;5001162;28;20034;-75
2022/06/02 05:33:26;;;;;;;4.78;3.03;;;15.60;89.10;;;;;;4995361;28;20880;-75
2022/06/02 05:36:12;;;;;;;5.70;3.22;;;15.60;89.20;;;;;;4995979;28;20026;-75
2022/06/02 05:38:48;;;;;;;4.78;2.90;;;15.60;89.10;;;;;;4986851;28;20027;-75
2022/06/02 05:41:51;;;;;;;5.88;3.10;;;15.60;89.10;;;;;;4996667;28;20534;-75
2022/06/02 05:44:50;;;;;;;5.00;3.17;;;15.70;89.00;;;;;;5002888;28;20033;-76
2022/06/02 05:47:32;;;;;;;5.00;2.85;;;15.70;88.70;;;;;;5002144;28;20411;-75
2022/06/02 05:50:18;;;;;;;4.78;3.03;;;15.70;88.50;;;;;;4998817;28;20022;-75
2022/06/02 05:52:58;;;;;;;4.68;3.08;;;15.80;88.30;;;;;;5000235;28;20535;-75
2022/06/02 05:55:30;;;;;;;4.85;2.97;;;15.80;88.20;;;;;;5013115;28;20489;-75
2022/06/02 05:58:17;;;;;;;4.75;3.05;;;15.80;88.20;;;;;;5004430;28;20026;-76
2022/06/02 06:01:42;;;;;;;4.90;3.20;;;15.80;88.20;;;;;;5000855;28;20034;-74
2022/06/02 06:04:44;;;;;;;4.40;2.85;;;15.80;88.30;;;;;;4946947;28;20405;-75
2022/06/02 06:07:43;;;;;;;4.75;2.88;;;15.80;88.40;;;;;;4954087;28;20091;-75
2022/06/02 06:10:33;;;;;;;4.97;2.97;;;15.70;88.40;;;;;;5008356;28;20442;-76
2022/06/02 06:13:20;;;;;;;5.33;3.37;;;15.70;88.40;;;;;;4992400;28;20045;-75
2022/06/02 06:16:14;;;;;;;4.82;3.10;;;15.70;88.40;;;;;;5010689;28;20288;-74
2022/06/02 06:18:43;;;;;;;5.35;3.45;;;15.70;88.40;;;;;;5009798;28;20026;-75
2022/06/02 06:21:29;;;;;;;4.93;3.13;;;15.70;88.50;;;;;;5014671;28;20044;-74
2022/06/02 06:24:23;;;;;;;4.80;2.88;;;15.70;88.40;;;;;;4995168;28;20033;-74
2022/06/02 06:27:22;;;;;;;5.28;3.22;;;15.70;88.40;;;;;;4991793;28;20033;-78
2022/06/02 06:30:07;;;;;;;5.72;3.40;;;15.80;88.50;;;;;;5002536;28;20113;-75
2022/06/02 06:32:40;;;;;;;4.80;3.00;;;15.80;88.50;;;;;;5000160;28;20105;-76
2022/06/02 06:35:24;;;;;;;4.85;3.13;;;15.80;88.30;;;;;;5000640;28;20029;-77
2022/06/02 06:38:02;;;;;;;5.25;3.20;;;15.80;88.40;;;;;;5002077;28;20054;-76
2022/06/02 06:40:41;;;;;;;5.43;3.60;;;15.80;88.40;;;;;;4996624;28;20041;-76
2022/06/02 06:43:33;;;;;;;5.32;3.53;;;15.80;88.40;;;;;;5001183;28;20598;-76
2022/06/02 06:46:26;;;;;;;4.82;3.05;;;15.80;88.40;;;;;;5006206;28;20026;-76
2022/06/02 06:48:55;;;;;;;5.65;3.47;;;15.80;88.30;;;;;;4999074;28;20018;-74
2022/06/02 06:52:03;;;;;;;5.45;3.40;;;15.80;88.30;;;;;;4990916;28;20026;-76
2022/06/02 06:54:54;;;;;;;4.72;3.00;;;15.80;88.10;;;;;;4960917;28;20050;-76
2022/06/02 06:57:47;;;;;;;5.65;3.58;;;15.90;87.90;;;;;;5002554;28;20505;-76
2022/06/02 07:00:21;;;;;;;5.07;3.28;;;15.90;87.80;;;;;;5007642;28;20120;-75
2022/06/02 07:03:18;;;;;;;5.90;3.50;;;16.00;87.50;;;;;;5001538;28;20072;-76
2022/06/02 07:05:48;;;;;;;5.53;3.40;;;16.00;87.50;;;;;;4999359;28;20495;-76
2022/06/02 07:08:34;;;;;;;5.82;3.60;;;16.00;87.30;;;;;;4999456;28;20411;-77
2022/06/02 07:12:50;;;;;;;5.47;3.25;;;16.00;87.30;;;;;;5002070;28;20022;-76
2022/06/02 07:14:04;;;;;;;5.38;3.30;;;16.00;87.50;;;;;;4992648;28;20030;-76
2022/06/02 07:16:49;;;;;;;4.82;3.20;;;15.90;87.50;;;;;;5005574;28;20058;-76
2022/06/02 07:19:41;;;;;;;5.20;3.50;;;16.00;87.60;;;;;;5006314;28;20034;-76
2022/06/02 07:22:37;;;;;;;5.82;3.28;;;15.90;87.60;;;;;;4990988;28;20189;-76
2022/06/02 07:25:21;;;;;;;4.93;3.20;;;16.00;87.50;;;;;;4995499;28;20081;-76
2022/06/02 07:28:07;;;;;;;5.80;3.83;;;16.00;87.30;;;;;;5001697;28;20097;-74
2022/06/02 07:30:50;;;;;;;6.43;4.40;;;16.00;87.40;;;;;;5009975;28;20113;-75
2022/06/02 07:33:28;;;;;;;6.20;3.72;;;16.10;87.50;;;;;;5007572;28;20115;-74
2022/06/02 07:36:49;;;;;;;7.07;4.55;;;16.10;87.00;;;;;;5009663;28;20387;-75
2022/06/02 07:39:23;;;;;;;6.97;4.60;;;16.10;86.90;;;;;;5002815;28;20426;-76
2022/06/02 07:42:06;;;;;;;7.22;4.40;;;16.10;86.50;;;;;;5007890;28;20030;-75
2022/06/02 07:44:47;;;;;;;7.38;4.55;;;16.00;86.60;;;;;;5007959;28;20030;-75
2022/06/02 07:47:34;;;;;;;6.78;4.15;;;16.10;86.70;;;;;;5007942;28;20022;-75
2022/06/02 07:50:04;;;;;;;7.10;4.45;;;16.10;86.60;;;;;;5009081;28;20526;-75
2022/06/02 07:52:35;;;;;;;6.68;4.60;;;16.10;86.50;;;;;;5007924;28;20036;-75
2022/06/02 07:55:25;;;;;;;7.35;4.90;;;16.10;86.40;;;;;;5008996;28;20030;-77
2022/06/02 07:57:59;;;;;;;;;;;16.10;86.50;;;;;;5008727;28;20424;-77
2022/06/02 08:00:38;;;;;;;6.85;4.43;;;16.10;86.50;;;;;;4993925;28;19968;-77
2022/06/02 08:03:39;;;;;;;7.60;5.57;;;16.20;86.50;;;;;;4991828;28;20526;-77
2022/06/02 08:06:14;;;;;;;8.23;5.50;;;16.20;86.30;;;;;;4992206;28;20038;-77
2022/06/02 08:08:51;;;;;;;7.25;5.13;;;16.30;86.10;;;;;;5007898;28;20065;-77
2022/06/02 08:11:53;;;;;;;8.50;5.40;;;16.30;85.80;;;;;;5006980;28;20026;-77
2022/06/02 08:14:48;;;;;;;8.35;4.97;;;16.40;85.60;;;;;;4987968;28;20030;-76
2022/06/02 08:17:35;;;;;;;8.00;5.35;;;16.40;85.40;;;;;;4987467;28;20060;-77
2022/06/02 08:20:23;;;;;;;8.23;5.93;;;16.40;85.30;;;;;;5003604;28;20037;-77
2022/06/02 08:23:11;;;;;;;7.80;5.53;;;16.40;85.50;;;;;;4999592;28;20030;-77
2022/06/02 08:25:59;;;;;;;9.02;6.63;;;16.30;85.70;;;;;;4988788;28;20105;-76
2022/06/02 08:28:37;;;;;;;8.27;5.82;;;16.30;85.90;;;;;;4988688;28;20026;-77
2022/06/02 08:31:31;;;;;;;8.23;5.85;;;16.30;86.00;;;;;;4988822;28;20041;-77
2022/06/02 08:34:04;;;;;;;7.25;5.13;;;16.30;85.90;;;;;;4988485;28;20580;-76
2022/06/02 08:36:34;;;;;;;7.55;5.55;;;16.40;85.90;;;;;;4996199;28;20033;-79
2022/06/02 08:38:59;;;;;;;7.35;5.07;;;16.30;85.80;;;;;;5002691;28;20030;-77
2022/06/02 08:41:52;;;;;;;7.88;5.93;;;16.40;85.70;;;;;;4994435;28;20033;-77
2022/06/02 08:44:45;;;;;;;7.65;5.65;;;16.40;85.80;;;;;;5002109;28;20030;-77
2022/06/02 08:47:13;;;;;;;8.98;6.40;;;16.40;85.90;;;;;;5001736;28;20026;-77
2022/06/02 08:50:10;;;;;;;8.38;5.90;;;16.40;85.80;;;;;;4988164;28;20053;-77
2022/06/02 08:53:19;;;;;;;8.40;5.22;;;16.40;85.70;;;;;;5003519;28;20056;-77
2022/06/02 08:56:18;;;;;;;8.20;5.78;;;16.40;85.70;;;;;;5003282;28;20026;-77
2022/06/02 08:59:09;;;;;;;8.98;6.28;;;16.40;85.60;;;;;;4988014;28;20038;-78
2022/06/02 09:02:01;;;;;;;8.35;6.03;;;16.50;85.60;;;;;;4988018;28;20117;-75
2022/06/02 09:04:26;;;;;;;9.65;5.80;;;16.50;85.50;;;;;;5002982;28;20027;-77
2022/06/02 09:07:30;;;;;;;8.55;5.90;;;16.50;85.40;;;;;;5003123;28;20033;-76
2022/06/02 09:10:24;;;;;;;8.60;5.97;;;16.60;85.40;;;;;;5003803;28;20406;-77
2022/06/02 09:13:21;;;;;;;8.45;6.32;;;16.60;85.40;;;;;;4994236;28;20226;-77
2022/06/02 09:15:56;;;;;;;8.68;5.90;;;16.60;85.10;;;;;;5001837;28;20037;-77
2022/06/02 09:18:46;;;;;;;7.55;5.70;;;16.70;84.90;;;;;;5005095;28;20030;-76
2022/06/02 09:21:20;;;;;;;8.65;6.10;;;16.70;84.70;;;;;;4994325;28;20289;-76
2022/06/02 09:24:26;;;;;;;7.97;5.53;;;16.70;84.60;;;;;;4986174;28;20038;-74
2022/06/02 09:27:21;;;;;;;8.57;5.80;;;16.70;84.50;;;;;;4967394;28;20504;-75
2022/06/02 09:29:57;;;;;;;8.40;5.80;;;16.70;84.60;;;;;;4973399;28;20129;-75
2022/06/02 09:32:53;;;;;;;7.75;5.45;;;16.70;84.60;;;;;;4986210;28;20030;-75
2022/06/02 09:35:45;;;;;;;8.00;5.30;;;16.70;84.70;;;;;;4987547;28;20026;-76
2022/06/02 09:38:33;;;;;;;8.30;5.60;;;16.70;84.90;;;;;;4986896;28;20167;-75
2022/06/02 09:41:29;;;;;;;7.88;5.72;;;16.70;84.90;;;;;;4987096;28;20041;-75
2022/06/02 09:44:15;;;;;;;7.90;5.22;;;16.60;84.90;;;;;;4985973;28;20515;-76
2022/06/02 09:46:59;;;;;;;7.43;4.70;;;16.70;85.10;;;;;;4986520;28;20034;-76
2022/06/02 09:50:00;;;;;;;8.15;5.80;;;16.70;85.00;;;;;;4985860;28;20395;-76
2022/06/02 09:52:42;;;;;;;7.60;5.25;;;16.70;85.10;;;;;;4987304;28;20030;-76
2022/06/02 09:55:35;;;;;;;8.13;5.75;;;16.70;85.00;;;;;;4987084;28;20609;-76
2022/06/02 09:58:05;;;;;;;7.45;5.18;;;16.70;85.50;;;;;;4986571;28;20392;-76
2022/06/02 10:00:36;;;;;;;7.45;5.10;;;16.70;85.00;;;;;;4985363;28;20034;-76
2022/06/02 10:03:16;;;;;;;7.22;5.00;;;16.70;84.90;;;;;;4985578;28;20030;-76
2022/06/02 10:06:06;;;;;;;7.50;5.22;;;16.80;84.90;;;;;;4986147;28;20037;-76
2022/06/02 10:09:03;;;;;;;7.07;4.80;;;16.80;84.90;;;;;;4986635;28;20030;-75
2022/06/02 10:15:17;;;;;;;7.15;4.45;;;16.80;84.80;;;;;;4986106;28;20204;-76
2022/06/02 10:18:01;;;;;;;7.53;5.43;;;16.80;84.90;;;;;;4986563;28;20089;-76
2022/06/02 10:20:33;;;;;;;6.47;4.28;;;16.80;84.80;;;;;;4985414;28;20034;-76
2022/06/02 10:23:18;;;;;;;7.57;5.10;;;16.80;84.70;;;;;;4986813;28;20133;-76
2022/06/02 10:26:09;;;;;;;6.75;4.53;;;16.80;84.70;;;;;;4985493;28;20417;-76
2022/06/02 10:28:38;;;;;;;6.32;4.25;;;16.80;84.50;;;;;;4985042;28;20030;-75
2022/06/02 10:31:09;;;;;;;7.65;4.88;;;16.90;84.50;;;;;;4986589;28;20057;-76
2022/06/02 10:33:44;;;;;;;6.78;4.43;;;16.90;84.40;;;;;;4986779;28;20031;-75
2022/06/02 10:36:54;;;;;;;6.97;4.65;;;16.80;84.50;;;;;;4986625;28;20083;-75
2022/06/02 10:39:26;;;;;;;7.07;4.68;;;16.80;84.70;;;;;;4985535;28;20542;-76
2022/06/02 10:42:17;;;;;;;6.78;4.57;;;16.80;84.70;;;;;;4985311;28;20053;-75
2022/06/02 10:45:01;;;;;;;6.30;4.20;;;16.80;84.70;;;;;;4985507;28;20408;-76
2022/06/02 10:47:36;;;;;;;7.05;4.68;;;16.80;84.70;;;;;;4984988;28;20483;-76
2022/06/02 10:50:37;;;;;;;6.15;4.10;;;16.80;84.70;;;;;;4985266;28;20114;-75
2022/06/02 10:53:47;;;;;;;6.28;3.97;;;16.80;84.70;;;;;;4970543;28;20129;-76
2022/06/02 10:56:33;;;;;;;6.45;4.40;;;16.80;84.70;;;;;;4986498;28;20061;-76
2022/06/02 10:59:03;;;;;;;6.70;4.50;;;16.80;84.80;;;;;;4986235;28;20026;-75
2022/06/02 11:02:05;;;;;;;6.45;4.47;;;16.70;84.80;;;;;;4986378;28;20038;-76
2022/06/02 11:04:56;;;;;;;7.35;4.78;;;16.80;85.00;;;;;;4986235;28;20026;-75
2022/06/02 11:07:41;;;;;;;6.43;4.30;;;16.70;85.00;;;;;;4984432;28;20488;-75
2022/06/02 11:10:21;;;;;;;6.95;4.70;;;16.80;85.00;;;;;;4985155;28;20069;-75
2022/06/02 11:13:13;;;;;;;7.22;4.60;;;16.80;85.10;;;;;;4986349;28;20105;-76
2022/06/02 11:15:44;;;;;;;6.63;4.57;;;16.80;85.10;;;;;;4985187;28;20412;-76
2022/06/02 11:18:31;;;;;;;6.85;4.75;;;16.80;85.10;;;;;;4989298;28;20399;-75
2022/06/02 11:21:09;;;;;;;6.30;4.30;;;16.70;85.10;;;;;;4989763;28;20034;-76
2022/06/02 11:24:10;;;;;;;6.00;4.18;;;16.70;85.30;;;;;;4990719;28;20026;-76
2022/06/02 11:27:00;;;;;;;6.45;4.45;;;16.70;85.50;;;;;;4990804;28;20022;-78
2022/06/02 11:30:01;;;;;;;7.30;4.65;;;16.70;85.60;;;;;;4988374;28;20081;-76
2022/06/02 11:33:13;;;;;;;6.55;4.15;;;16.70;85.40;;;;;;4989673;28;20022;-77
2022/06/02 11:36:06;;;;;;;6.85;4.25;;;16.80;85.20;;;;;;4980067;28;20042;-75
2022/06/02 11:38:57;;;;;;;6.40;4.35;;;16.80;84.90;;;;;;4987716;28;20100;-76
2022/06/02 11:41:26;;;;;;;5.88;3.97;;;16.80;84.70;;;;;;4989490;28;20026;-76
2022/06/02 11:44:22;;;;;;;6.00;3.90;;;16.80;84.60;;;;;;4989556;28;20866;-76
2022/06/02 11:47:10;;;;;;;6.60;4.20;;;16.90;84.70;;;;;;4989374;28;20030;-75
2022/06/02 11:49:48;;;;;;;6.38;4.07;;;16.80;84.70;;;;;;4988083;28;20030;-76
2022/06/02 11:52:54;;;;;;;6.63;4.45;;;16.80;84.80;;;;;;4989315;28;20057;-75
2022/06/02 11:55:38;;;;;;;6.53;4.13;;;16.80;85.00;;;;;;4971707;28;20451;-76
2022/06/02 11:58:37;;;;;;;6.47;3.92;;;16.70;85.20;;;;;;4987556;28;20030;-76
2022/06/02 12:01:18;;;;;;;5.90;3.80;;;16.70;85.30;;;;;;5004102;28;20026;-76
2022/06/02 12:04:16;;;;;;;5.95;3.90;;;16.70;85.40;;;;;;4987837;28;20026;-75
2022/06/02 12:07:05;;;;;;;6.80;4.28;;;16.60;85.60;;;;;;4971538;28;20031;-76
2022/06/02 12:10:26;;;;;;;6.07;4.10;;;16.60;85.80;;;;;;4987908;28;20026;-76
2022/06/02 12:13:21;;;;;;;5.97;3.90;;;16.60;86.00;;;;;;4987441;28;20030;-74
2022/06/02 12:15:59;;;;;;;6.50;4.13;;;16.60;86.10;;;;;;4988980;28;20572;-76
2022/06/02 12:18:31;;;;;;;6.20;3.92;;;16.60;86.20;;;;;;4987259;28;20026;-75
2022/06/02 12:21:26;;;;;;;6.22;4.00;;;16.50;86.20;;;;;;4991566;28;20030;-75
2022/06/02 12:24:07;;;;;;;6.43;4.32;;;16.60;86.20;;;;;;5006735;28;20033;-76
2022/06/02 12:26:38;;;;;;;6.40;4.13;;;16.60;86.20;;;;;;5022760;28;20025;-75
2022/06/02 12:29:28;;;;;;;6.10;3.85;;;16.60;86.20;;;;;;5021923;28;20487;-75
2022/06/02 12:32:11;;;;;;;5.85;3.92;;;16.60;86.20;;;;;;5008339;28;20029;-76
2022/06/02 12:34:55;;;;;;;5.78;3.60;;;16.60;86.20;;;;;;5008187;28;20036;-75
2022/06/02 12:37:39;;;;;;;6.07;4.05;;;16.60;86.10;;;;;;5007632;28;20034;-75
2022/06/02 12:40:19;;;;;;;6.47;4.50;;;16.60;86.00;;;;;;5007730;28;20037;-76
2022/06/02 12:43:07;;;;;;;5.80;3.97;;;16.60;85.90;;;;;;5007977;28;20033;-75
2022/06/02 12:45:57;;;;;;;6.07;4.00;;;16.60;85.80;;;;;;5008025;28;20102;-75
2022/06/02 12:48:37;;;;;;;5.85;3.85;;;16.70;85.70;;;;;;5006308;28;20391;-75
2022/06/02 12:51:24;;;;;;;6.05;3.83;;;16.70;85.60;;;;;;5022821;28;20110;-76
2022/06/02 12:54:02;;;;;;;6.15;4.00;;;16.70;85.60;;;;;;5007379;28;20494;-74
2022/06/02 12:56:40;;;;;;;6.05;3.65;;;16.60;85.70;;;;;;5023115;28;20041;-76
2022/06/02 12:59:36;;;;;;;5.80;3.83;;;16.60;85.80;;;;;;5007546;28;20384;-76
2022/06/02 13:02:22;;;;;;;6.10;3.85;;;16.60;85.90;;;;;;5007600;28;20038;-75
2022/06/02 13:05:08;;;;;;;6.10;3.88;;;16.60;86.00;;;;;;5006220;28;20033;-75
2022/06/02 13:08:11;;;;;;;5.65;3.85;;;16.60;86.70;;;;;;5022636;28;20857;-76
2022/06/02 13:11:10;;;;;;;5.78;3.80;;;16.60;86.20;;;;;;5022434;28;20025;-75
2022/06/02 13:14:05;;;;;;;6.30;3.97;;;16.50;86.30;;;;;;5006212;28;20036;-75
2022/06/02 13:17:04;;;;;;;6.30;4.22;;;16.50;86.40;;;;;;5006295;28;20068;-76
2022/06/02 13:19:55;;;;;;;5.70;3.80;;;16.50;86.40;;;;;;5007254;28;20026;-75
2022/06/02 13:22:48;;;;;;;6.00;3.72;;;16.50;86.40;;;;;;5007445;28;20376;-76
2022/06/02 13:25:22;;;;;;;5.50;3.60;;;16.50;86.50;;;;;;5022125;28;20034;-76
2022/06/02 13:27:57;;;;;;;6.35;4.13;;;16.50;86.50;;;;;;5007015;28;20022;-75
2022/06/02 13:30:32;;;;;;;5.90;3.53;;;16.50;87.10;;;;;;5022208;28;20407;-76
2022/06/02 13:33:35;;;;;;;6.07;3.92;;;16.50;86.60;;;;;;5022045;28;20499;-75
2022/06/02 13:36:27;;;;;;;6.18;4.07;;;16.40;86.70;;;;;;5021996;28;20018;-76
2022/06/02 13:39:09;;;;;;;6.10;3.80;;;16.40;86.70;;;;;;5005942;28;20033;-75
2022/06/02 13:42:00;;;;;;;5.82;3.72;;;16.40;86.80;;;;;;5007762;28;20034;-76
2022/06/02 13:44:44;;;;;;;;;;;16.50;86.80;;;;;;5007571;28;20029;-77
2022/06/02 13:47:48;;;;;;;5.80;3.70;;;16.50;86.80;;;;;;5006509;28;19933;-77
2022/06/02 13:50:32;;;;;;;6.07;3.67;;;16.50;86.60;;;;;;5021942;28;20018;-77
2022/06/02 13:53:12;;;;;;;5.93;4.00;;;16.50;86.40;;;;;;5006684;28;20479;-75
2022/06/02 13:58:56;;;;;;;6.13;4.07;;;16.60;86.30;;;;;;5006394;28;20622;-75
2022/06/02 14:01:41;;;;;;;5.70;3.72;;;16.50;86.20;;;;;;5006420;28;20026;-75
2022/06/02 14:04:40;;;;;;;5.70;3.60;;;16.50;86.30;;;;;;5006748;28;20021;-76
2022/06/02 14:07:36;;;;;;;5.95;3.72;;;16.50;86.50;;;;;;5006523;28;20411;-76
2022/06/02 14:10:36;;;;;;;5.72;3.80;;;16.50;86.70;;;;;;5006549;28;20033;-75
2022/06/02 14:13:26;;;;;;;6.72;3.60;;;16.40;86.70;;;;;;5006395;28;20113;-75
2022/06/02 14:16:29;;;;;;;5.70;3.70;;;16.40;86.90;;;;;;5006231;28;20073;-75
2022/06/02 14:19:11;;;;;;;5.30;3.53;;;16.40;86.90;;;;;;5006131;28;20167;-75
2022/06/02 14:21:59;;;;;;;5.15;3.35;;;16.40;87.00;;;;;;5006369;28;20045;-75
2022/06/02 14:25:02;;;;;;;5.80;3.70;;;16.40;87.00;;;;;;5021532;28;20046;-77
2022/06/02 14:27:33;;;;;;;5.55;3.55;;;16.40;87.10;;;;;;5004715;28;20029;-75
2022/06/02 14:30:16;;;;;;;5.93;3.60;;;16.40;87.20;;;;;;5006065;28;20026;-75
2022/06/02 14:33:23;;;;;;;5.93;3.72;;;16.40;87.10;;;;;;5006630;28;20507;-75
2022/06/02 14:36:23;;;;;;;5.60;3.58;;;16.40;87.10;;;;;;5022352;28;20037;-78
2022/06/02 14:39:19;;;;;;;5.57;3.80;;;16.40;87.10;;;;;;5004882;28;20057;-76
2022/06/02 14:42:03;;;;;;;5.90;3.88;;;16.40;87.20;;;;;;5006542;28;20087;-77
2022/06/02 14:44:52;;;;;;;5.68;3.42;;;16.40;87.20;;;;;;5022630;28;20034;-76